This is the latest recevied weather packets stored in our database for station/object KV9E. If no packets are shown the sender has not sent any weather packets the latest 1 day(s).
| Time | Temp. | Humidity | Pressure | Rain* | Wind** | Luminosity | Snow |
|---|---|---|---|---|---|---|---|
| 1778012326 | 21.11° C | 54% | 1010.3 hPa | 0 mm | 1.79 m/s, 152° | 360 W/m² | - |
| 1778012023 | 21.11° C | 55% | 1010.3 hPa | 0 mm | 0.89 m/s, 172° | 334 W/m² | - |
| 1778011721 | 20.56° C | 56% | 1010.4 hPa | 0 mm | 0 m/s | 326 W/m² | - |
| 1778011418 | 20.56° C | 56% | 1010.6 hPa | 0 mm | 2.24 m/s, 162° | 353 W/m² | - |
| 1778011113 | 20.56° C | 55% | 1011 hPa | 0 mm | 0.89 m/s, 122° | 260 W/m² | - |
| 1778010811 | 20° C | 56% | 1011.1 hPa | 0 mm | 0.89 m/s, 176° | 434 W/m² | - |
| 1778010508 | 19.44° C | 57% | 1011 hPa | 0 mm | 1.79 m/s, 178° | 307 W/m² | - |
| 1778010205 | 19.44° C | 57% | 1011.1 hPa | 0 mm | 0 m/s | 134 W/m² | - |
| 1778009900 | 19.44° C | 60% | 1011 hPa | 0 mm | 0 m/s | 115 W/m² | - |
| 1778009598 | 19.44° C | 62% | 1011 hPa | 0 mm | 1.34 m/s, 190° | 170 W/m² | - |
| 1778009296 | 19.44° C | 59% | 1011.2 hPa | 0 mm | 0.89 m/s, 175° | 167 W/m² | - |
| 1778008994 | 20° C | 58% | 1011.2 hPa | 0 mm | 0 m/s | 139 W/m² | - |
| 1778008691 | 20.56° C | 56% | 1011.2 hPa | 0 mm | 0 m/s | 564 W/m² | - |
| 1778008390 | 21.67° C | 54% | 1011.3 hPa | 0 mm | 0.89 m/s, 185° | 282 W/m² | - |
| 1778008086 | 21.11° C | 58% | 1011.7 hPa | 0 mm | 0 m/s | 568 W/m² | - |
| 1778007781 | 21.11° C | 58% | 1011.7 hPa | 0 mm | 2.68 m/s, 94° | 707 W/m² | - |
| 1778007477 | 20.56° C | 58% | 1012.1 hPa | 0 mm | 0 m/s | 651 W/m² | - |
| 1778007174 | 20.56° C | 60% | 1012 hPa | 0 mm | 0 m/s | 508 W/m² | - |
| 1778006870 | 19.44° C | 62% | 1011.9 hPa | 0 mm | 0.89 m/s, 131° | 444 W/m² | - |
| 1778006568 | 19.44° C | 62% | 1011.8 hPa | 0 mm | 0.45 m/s, 159° | 222 W/m² | - |
| 1778006264 | 19.44° C | 61% | 1011.9 hPa | 0 mm | 0 m/s | 236 W/m² | - |
| 1778005962 | 18.89° C | 64% | 1011.9 hPa | 0 mm | 0.45 m/s, 187° | 318 W/m² | - |
| 1778005658 | 19.44° C | 60% | 1011.4 hPa | 0 mm | 0.89 m/s, 262° | 179 W/m² | - |
| 1778005355 | 19.44° C | 59% | 1012 hPa | 0 mm | 2.68 m/s, 155° | 282 W/m² | - |
| 1778005051 | 18.89° C | 60% | 1012 hPa | 0 mm | 0 m/s | 481 W/m² | - |
* Rain latest hour (hover to see other rain measurements)
** Current wind speed in m/s (hover to see current wind gust speed)